Milford, Iowa
Current Conditions -  °F | °C
As of 4:53 PM on Friday 19 Dec 2014 (Local Time) from KSPW Reporting Station
Overcast Overcast  
Wind Chill: 25°   Ceiling: 1500
Heat Index: 33°   Visibility: 7mi
Dew Point: 28°   Wind: 10mph
Humidity: 82%   Direction: 180°S
Pressure: 30.14"   Gusts: NA
Location:  43.32°N, 95.15°W
Report Text: KSPW 192253Z AUTO 18009KT 7SM OVC015 01/M02 A3014 RMK AO2 SLP222 T00061022 TSNO
Loading
Personal Weather Stations






























Interactive Weather Map New forecast layout! Learn more

10-Day Weather Forecast

Advertisements
Track Severe Weather on mobile